sensor_id;sensor_type;location;lat;lon;timestamp;P1;durP1;ratioP1;P2;durP2;ratioP2
74753;SDS011;63271;53.340;-6.260;2023-11-21T07:02:49;7.50;;;1.65;;
74753;SDS011;63271;53.340;-6.260;2023-11-21T07:05:14;10.45;;;1.80;;
74753;SDS011;63271;53.340;-6.260;2023-11-21T07:07:45;8.77;;;1.92;;
74753;SDS011;63271;53.340;-6.260;2023-11-21T07:10:13;14.38;;;2.45;;
74753;SDS011;63271;53.340;-6.260;2023-11-21T07:12:42;7.55;;;1.75;;
74753;SDS011;63271;53.340;-6.260;2023-11-21T07:15:07;9.77;;;1.55;;
74753;SDS011;63271;53.340;-6.260;2023-11-21T07:17:38;10.50;;;2.40;;
74753;SDS011;63271;53.340;-6.260;2023-11-21T07:20:08;8.82;;;2.22;;
74753;SDS011;63271;53.340;-6.260;2023-11-21T07:22:41;8.88;;;1.73;;
74753;SDS011;63271;53.340;-6.260;2023-11-21T07:25:09;7.22;;;1.98;;
74753;SDS011;63271;53.340;-6.260;2023-11-21T07:27:35;8.00;;;1.88;;
74753;SDS011;63271;53.340;-6.260;2023-11-21T07:30:01;10.63;;;1.95;;
74753;SDS011;63271;53.340;-6.260;2023-11-21T07:32:29;13.38;;;2.40;;
74753;SDS011;63271;53.340;-6.260;2023-11-21T07:34:57;12.52;;;1.98;;
74753;SDS011;63271;53.340;-6.260;2023-11-21T07:37:26;10.25;;;1.83;;
74753;SDS011;63271;53.340;-6.260;2023-11-21T07:39:53;9.45;;;2.00;;
74753;SDS011;63271;53.340;-6.260;2023-11-21T07:42:21;13.07;;;2.47;;
74753;SDS011;63271;53.340;-6.260;2023-11-21T07:44:52;10.35;;;1.90;;
74753;SDS011;63271;53.340;-6.260;2023-11-21T07:47:20;9.63;;;2.17;;
74753;SDS011;63271;53.340;-6.260;2023-11-21T07:49:50;14.27;;;3.38;;
74753;SDS011;63271;53.340;-6.260;2023-11-21T07:52:18;9.02;;;1.58;;
74753;SDS011;63271;53.340;-6.260;2023-11-21T07:54:46;6.03;;;2.00;;
74753;SDS011;63271;53.340;-6.260;2023-11-21T07:57:11;9.05;;;1.88;;
74753;SDS011;63271;53.340;-6.260;2023-11-21T07:59:43;11.75;;;2.70;;
74753;SDS011;63271;53.340;-6.260;2023-11-21T08:02:08;9.13;;;2.20;;
74753;SDS011;63271;53.340;-6.260;2023-11-21T08:04:38;10.60;;;2.28;;
74753;SDS011;63271;53.340;-6.260;2023-11-21T08:07:06;8.68;;;1.83;;
74753;SDS011;63271;53.340;-6.260;2023-11-21T08:09:31;7.05;;;1.70;;
74753;SDS011;63271;53.340;-6.260;2023-11-21T08:12:00;7.78;;;2.00;;
74753;SDS011;63271;53.340;-6.260;2023-11-21T08:14:29;9.50;;;2.05;;
74753;SDS011;63271;53.340;-6.260;2023-11-21T08:16:57;11.68;;;2.38;;
74753;SDS011;63271;53.340;-6.260;2023-11-21T08:19:25;6.90;;;1.83;;
74753;SDS011;63271;53.340;-6.260;2023-11-21T08:21:55;11.68;;;2.35;;
74753;SDS011;63271;53.340;-6.260;2023-11-21T08:24:23;5.47;;;1.58;;
74753;SDS011;63271;53.340;-6.260;2023-11-21T08:26:51;11.77;;;2.15;;
74753;SDS011;63271;53.340;-6.260;2023-11-21T08:29:19;9.70;;;2.40;;
74753;SDS011;63271;53.340;-6.260;2023-11-21T08:31:45;11.35;;;2.33;;
74753;SDS011;63271;53.340;-6.260;2023-11-21T08:34:13;6.68;;;1.77;;
74753;SDS011;63271;53.340;-6.260;2023-11-21T08:36:43;11.02;;;1.85;;
74753;SDS011;63271;53.340;-6.260;2023-11-21T08:39:13;8.48;;;2.00;;
74753;SDS011;63271;53.340;-6.260;2023-11-21T08:44:09;9.80;;;1.83;;
74753;SDS011;63271;53.340;-6.260;2023-11-21T08:46:37;8.52;;;2.10;;
74753;SDS011;63271;53.340;-6.260;2023-11-21T08:49:09;6.82;;;2.03;;
74753;SDS011;63271;53.340;-6.260;2023-11-21T08:51:36;11.32;;;2.47;;
74753;SDS011;63271;53.340;-6.260;2023-11-21T08:54:04;11.27;;;2.17;;
74753;SDS011;63271;53.340;-6.260;2023-11-21T08:56:33;10.27;;;2.80;;
74753;SDS011;63271;53.340;-6.260;2023-11-21T08:58:59;12.02;;;2.42;;
74753;SDS011;63271;53.340;-6.260;2023-11-21T09:01:31;10.93;;;2.28;;
74753;SDS011;63271;53.340;-6.260;2023-11-21T09:03:59;13.98;;;2.00;;
74753;SDS011;63271;53.340;-6.260;2023-11-21T09:06:24;10.55;;;2.22;;
74753;SDS011;63271;53.340;-6.260;2023-11-21T09:08:52;9.48;;;2.40;;
74753;SDS011;63271;53.340;-6.260;2023-11-21T09:11:17;8.57;;;2.45;;
74753;SDS011;63271;53.340;-6.260;2023-11-21T09:13:45;8.13;;;1.90;;
74753;SDS011;63271;53.340;-6.260;2023-11-21T09:16:12;10.90;;;2.53;;
74753;SDS011;63271;53.340;-6.260;2023-11-21T09:18:40;12.68;;;2.47;;
74753;SDS011;63271;53.340;-6.260;2023-11-21T09:21:06;10.20;;;2.58;;
74753;SDS011;63271;53.340;-6.260;2023-11-21T09:23:34;10.55;;;2.13;;
74753;SDS011;63271;53.340;-6.260;2023-11-21T09:26:00;12.68;;;2.33;;
74753;SDS011;63271;53.340;-6.260;2023-11-21T09:28:28;9.73;;;2.00;;
74753;SDS011;63271;53.340;-6.260;2023-11-21T09:30:54;10.65;;;2.33;;
74753;SDS011;63271;53.340;-6.260;2023-11-21T09:33:19;10.50;;;2.17;;
74753;SDS011;63271;53.340;-6.260;2023-11-21T09:35:47;12.90;;;2.42;;
74753;SDS011;63271;53.340;-6.260;2023-11-21T09:38:13;11.60;;;2.67;;
74753;SDS011;63271;53.340;-6.260;2023-11-21T09:40:41;9.35;;;2.65;;
74753;SDS011;63271;53.340;-6.260;2023-11-21T09:43:08;12.95;;;2.50;;
74753;SDS011;63271;53.340;-6.260;2023-11-21T09:45:44;11.55;;;2.30;;
74753;SDS011;63271;53.340;-6.260;2023-11-21T09:48:10;9.25;;;1.95;;
74753;SDS011;63271;53.340;-6.260;2023-11-21T09:50:39;15.02;;;2.13;;
74753;SDS011;63271;53.340;-6.260;2023-11-21T09:55:42;10.40;;;2.15;;
74753;SDS011;63271;53.340;-6.260;2023-11-21T09:58:09;10.10;;;2.22;;
74753;SDS011;63271;53.340;-6.260;2023-11-21T10:00:40;10.55;;;2.47;;
74753;SDS011;63271;53.340;-6.260;2023-11-21T10:03:12;12.68;;;2.00;;
74753;SDS011;63271;53.340;-6.260;2023-11-21T10:05:42;11.25;;;2.20;;
74753;SDS011;63271;53.340;-6.260;2023-11-21T10:08:09;14.98;;;2.33;;
74753;SDS011;63271;53.340;-6.260;2023-11-21T10:10:39;10.77;;;1.85;;
74753;SDS011;63271;53.340;-6.260;2023-11-21T10:13:12;8.90;;;2.10;;
74753;SDS011;63271;53.340;-6.260;2023-11-21T10:15:41;15.38;;;2.55;;
74753;SDS011;63271;53.340;-6.260;2023-11-21T10:18:15;9.38;;;1.85;;
74753;SDS011;63271;53.340;-6.260;2023-11-21T10:20:42;14.43;;;3.08;;
74753;SDS011;63271;53.340;-6.260;2023-11-21T10:23:19;5.80;;;1.90;;
74753;SDS011;63271;53.340;-6.260;2023-11-21T10:25:47;9.82;;;2.10;;
74753;SDS011;63271;53.340;-6.260;2023-11-21T10:28:14;11.45;;;2.90;;
74753;SDS011;63271;53.340;-6.260;2023-11-21T10:30:42;11.27;;;2.45;;
74753;SDS011;63271;53.340;-6.260;2023-11-21T10:33:09;7.43;;;2.08;;
74753;SDS011;63271;53.340;-6.260;2023-11-21T10:35:50;10.20;;;1.83;;
74753;SDS011;63271;53.340;-6.260;2023-11-21T10:38:17;12.85;;;2.40;;
74753;SDS011;63271;53.340;-6.260;2023-11-21T10:40:43;7.63;;;2.65;;
74753;SDS011;63271;53.340;-6.260;2023-11-21T10:43:12;10.60;;;1.88;;
74753;SDS011;63271;53.340;-6.260;2023-11-21T10:45:42;7.18;;;2.08;;
74753;SDS011;63271;53.340;-6.260;2023-11-21T10:48:09;10.32;;;2.10;;
74753;SDS011;63271;53.340;-6.260;2023-11-21T10:50:36;9.63;;;2.20;;
74753;SDS011;63271;53.340;-6.260;2023-11-21T10:53:06;8.13;;;1.80;;
74753;SDS011;63271;53.340;-6.260;2023-11-21T10:55:33;9.88;;;2.08;;
74753;SDS011;63271;53.340;-6.260;2023-11-21T10:58:02;7.22;;;1.95;;
74753;SDS011;63271;53.340;-6.260;2023-11-21T11:00:30;11.85;;;2.30;;
74753;SDS011;63271;53.340;-6.260;2023-11-21T11:02:58;10.27;;;2.58;;
74753;SDS011;63271;53.340;-6.260;2023-11-21T11:05:27;8.60;;;2.00;;
74753;SDS011;63271;53.340;-6.260;2023-11-21T11:08:04;10.35;;;2.53;;
74753;SDS011;63271;53.340;-6.260;2023-11-21T11:10:31;13.63;;;2.10;;
74753;SDS011;63271;53.340;-6.260;2023-11-21T11:13:00;15.45;;;2.38;;
74753;SDS011;63271;53.340;-6.260;2023-11-21T11:15:26;8.30;;;2.03;;
74753;SDS011;63271;53.340;-6.260;2023-11-21T11:17:58;6.15;;;2.13;;
74753;SDS011;63271;53.340;-6.260;2023-11-21T11:20:33;11.52;;;2.20;;
74753;SDS011;63271;53.340;-6.260;2023-11-21T11:25:37;6.88;;;1.80;;
74753;SDS011;63271;53.340;-6.260;2023-11-21T11:28:15;8.68;;;1.90;;
74753;SDS011;63271;53.340;-6.260;2023-11-21T11:33:27;12.15;;;2.67;;
74753;SDS011;63271;53.340;-6.260;2023-11-21T11:36:19;7.13;;;2.08;;
74753;SDS011;63271;53.340;-6.260;2023-11-21T11:38:49;9.02;;;2.40;;
74753;SDS011;63271;53.340;-6.260;2023-11-21T11:41:23;11.63;;;2.40;;
74753;SDS011;63271;53.340;-6.260;2023-11-21T11:43:58;11.50;;;2.47;;
74753;SDS011;63271;53.340;-6.260;2023-11-21T11:46:42;10.45;;;1.90;;
74753;SDS011;63271;53.340;-6.260;2023-11-21T11:49:23;8.45;;;1.88;;
74753;SDS011;63271;53.340;-6.260;2023-11-21T11:55:02;11.77;;;2.92;;
74753;SDS011;63271;53.340;-6.260;2023-11-21T11:57:33;6.38;;;1.75;;
74753;SDS011;63271;53.340;-6.260;2023-11-21T12:00:07;12.20;;;2.60;;
74753;SDS011;63271;53.340;-6.260;2023-11-21T12:02:50;13.57;;;2.10;;
74753;SDS011;63271;53.340;-6.260;2023-11-21T12:05:33;8.75;;;2.72;;
74753;SDS011;63271;53.340;-6.260;2023-11-21T12:08:09;10.05;;;2.03;;
74753;SDS011;63271;53.340;-6.260;2023-11-21T12:10:41;11.23;;;2.35;;
74753;SDS011;63271;53.340;-6.260;2023-11-21T12:13:10;10.52;;;2.05;;
74753;SDS011;63271;53.340;-6.260;2023-11-21T12:15:38;7.20;;;2.55;;
74753;SDS011;63271;53.340;-6.260;2023-11-21T12:18:06;8.55;;;2.38;;
74753;SDS011;63271;53.340;-6.260;2023-11-21T12:20:32;8.65;;;2.55;;
74753;SDS011;63271;53.340;-6.260;2023-11-21T12:23:03;10.10;;;2.42;;
74753;SDS011;63271;53.340;-6.260;2023-11-21T12:25:31;10.35;;;2.17;;
74753;SDS011;63271;53.340;-6.260;2023-11-21T12:27:58;14.02;;;2.63;;
74753;SDS011;63271;53.340;-6.260;2023-11-21T12:30:29;11.15;;;2.50;;
74753;SDS011;63271;53.340;-6.260;2023-11-21T12:33:01;9.10;;;2.03;;
74753;SDS011;63271;53.340;-6.260;2023-11-21T12:35:33;7.15;;;2.17;;
74753;SDS011;63271;53.340;-6.260;2023-11-21T12:37:59;13.90;;;2.40;;
74753;SDS011;63271;53.340;-6.260;2023-11-21T12:40:25;9.80;;;1.90;;
74753;SDS011;63271;53.340;-6.260;2023-11-21T12:42:55;10.32;;;2.45;;
74753;SDS011;63271;53.340;-6.260;2023-11-21T12:45:22;5.65;;;1.75;;
74753;SDS011;63271;53.340;-6.260;2023-11-21T12:47:51;10.32;;;2.10;;
74753;SDS011;63271;53.340;-6.260;2023-11-21T12:50:21;7.85;;;2.63;;
74753;SDS011;63271;53.340;-6.260;2023-11-21T12:52:54;10.10;;;2.40;;
74753;SDS011;63271;53.340;-6.260;2023-11-21T12:55:25;9.73;;;2.40;;
74753;SDS011;63271;53.340;-6.260;2023-11-21T12:57:54;7.68;;;1.85;;
74753;SDS011;63271;53.340;-6.260;2023-11-21T13:00:27;7.50;;;2.03;;
74753;SDS011;63271;53.340;-6.260;2023-11-21T13:02:57;16.50;;;2.70;;
74753;SDS011;63271;53.340;-6.260;2023-11-21T13:05:35;8.60;;;2.20;;
74753;SDS011;63271;53.340;-6.260;2023-11-21T13:08:07;12.00;;;2.42;;
74753;SDS011;63271;53.340;-6.260;2023-11-21T13:10:35;9.75;;;2.50;;
74753;SDS011;63271;53.340;-6.260;2023-11-21T13:13:05;8.43;;;2.05;;
74753;SDS011;63271;53.340;-6.260;2023-11-21T13:15:34;13.63;;;2.75;;
74753;SDS011;63271;53.340;-6.260;2023-11-21T13:18:04;17.20;;;3.33;;
74753;SDS011;63271;53.340;-6.260;2023-11-21T13:20:29;9.65;;;2.00;;
74753;SDS011;63271;53.340;-6.260;2023-11-21T13:22:57;9.20;;;1.75;;
74753;SDS011;63271;53.340;-6.260;2023-11-21T13:25:28;6.78;;;2.30;;
74753;SDS011;63271;53.340;-6.260;2023-11-21T13:27:59;7.32;;;2.42;;
74753;SDS011;63271;53.340;-6.260;2023-11-21T13:30:28;10.75;;;2.58;;
74753;SDS011;63271;53.340;-6.260;2023-11-21T13:33:00;9.40;;;2.50;;
74753;SDS011;63271;53.340;-6.260;2023-11-21T13:35:33;13.48;;;2.58;;
74753;SDS011;63271;53.340;-6.260;2023-11-21T13:38:05;9.20;;;2.33;;
74753;SDS011;63271;53.340;-6.260;2023-11-21T13:40:35;8.20;;;2.50;;
74753;SDS011;63271;53.340;-6.260;2023-11-21T13:43:17;10.52;;;2.53;;
74753;SDS011;63271;53.340;-6.260;2023-11-21T13:45:49;13.35;;;2.85;;
74753;SDS011;63271;53.340;-6.260;2023-11-21T13:48:23;10.38;;;2.42;;
74753;SDS011;63271;53.340;-6.260;2023-11-21T13:51:05;9.88;;;2.45;;
74753;SDS011;63271;53.340;-6.260;2023-11-21T13:53:48;7.88;;;2.10;;
74753;SDS011;63271;53.340;-6.260;2023-11-21T13:56:18;24.73;;;2.88;;
74753;SDS011;63271;53.340;-6.260;2023-11-21T13:58:54;12.10;;;2.60;;
74753;SDS011;63271;53.340;-6.260;2023-11-21T14:01:21;14.40;;;2.88;;
74753;SDS011;63271;53.340;-6.260;2023-11-21T14:04:12;14.32;;;2.97;;
74753;SDS011;63271;53.340;-6.260;2023-11-21T14:06:43;12.05;;;2.58;;
74753;SDS011;63271;53.340;-6.260;2023-11-21T14:09:14;17.20;;;3.25;;
74753;SDS011;63271;53.340;-6.260;2023-11-21T14:11:58;25.60;;;3.78;;
74753;SDS011;63271;53.340;-6.260;2023-11-21T14:14:31;25.90;;;5.47;;
74753;SDS011;63271;53.340;-6.260;2023-11-21T14:17:04;25.33;;;3.50;;
74753;SDS011;63271;53.340;-6.260;2023-11-21T14:19:34;14.32;;;3.38;;
74753;SDS011;63271;53.340;-6.260;2023-11-21T14:22:07;20.55;;;3.72;;
74753;SDS011;63271;53.340;-6.260;2023-11-21T14:24:35;33.38;;;4.10;;
74753;SDS011;63271;53.340;-6.260;2023-11-21T14:27:02;15.02;;;3.45;;
74753;SDS011;63271;53.340;-6.260;2023-11-21T14:29:28;14.95;;;3.40;;
74753;SDS011;63271;53.340;-6.260;2023-11-21T14:32:00;20.20;;;3.17;;
74753;SDS011;63271;53.340;-6.260;2023-11-21T14:34:26;14.35;;;3.05;;
74753;SDS011;63271;53.340;-6.260;2023-11-21T14:36:52;13.13;;;3.00;;
74753;SDS011;63271;53.340;-6.260;2023-11-21T14:39:19;13.70;;;3.50;;
74753;SDS011;63271;53.340;-6.260;2023-11-21T14:41:49;28.30;;;4.03;;
74753;SDS011;63271;53.340;-6.260;2023-11-21T14:44:15;15.23;;;3.53;;
74753;SDS011;63271;53.340;-6.260;2023-11-21T14:46:40;17.92;;;3.25;;
74753;SDS011;63271;53.340;-6.260;2023-11-21T14:49:10;15.20;;;3.40;;
74753;SDS011;63271;53.340;-6.260;2023-11-21T14:51:52;16.88;;;4.25;;
74753;SDS011;63271;53.340;-6.260;2023-11-21T14:54:33;17.35;;;3.75;;
74753;SDS011;63271;53.340;-6.260;2023-11-21T14:57:13;11.50;;;2.92;;
74753;SDS011;63271;53.340;-6.260;2023-11-21T14:59:47;14.27;;;3.17;;
74753;SDS011;63271;53.340;-6.260;2023-11-21T15:02:20;11.43;;;2.80;;
74753;SDS011;63271;53.340;-6.260;2023-11-21T15:05:08;11.75;;;2.63;;
74753;SDS011;63271;53.340;-6.260;2023-11-21T15:07:42;15.50;;;3.30;;
74753;SDS011;63271;53.340;-6.260;2023-11-21T15:10:08;14.88;;;3.20;;
74753;SDS011;63271;53.340;-6.260;2023-11-21T15:12:39;12.98;;;2.97;;
74753;SDS011;63271;53.340;-6.260;2023-11-21T15:15:11;17.65;;;3.25;;
74753;SDS011;63271;53.340;-6.260;2023-11-21T15:17:39;10.93;;;3.28;;
74753;SDS011;63271;53.340;-6.260;2023-11-21T15:20:07;12.65;;;2.72;;
74753;SDS011;63271;53.340;-6.260;2023-11-21T15:22:36;9.40;;;2.60;;
74753;SDS011;63271;53.340;-6.260;2023-11-21T15:25:02;12.60;;;2.85;;
74753;SDS011;63271;53.340;-6.260;2023-11-21T15:27:35;9.43;;;2.47;;
74753;SDS011;63271;53.340;-6.260;2023-11-21T15:30:02;13.02;;;3.10;;
74753;SDS011;63271;53.340;-6.260;2023-11-21T15:32:28;8.90;;;2.88;;
74753;SDS011;63271;53.340;-6.260;2023-11-21T15:34:54;11.73;;;2.65;;
74753;SDS011;63271;53.340;-6.260;2023-11-21T15:37:19;12.10;;;3.33;;
74753;SDS011;63271;53.340;-6.260;2023-11-21T15:39:47;18.88;;;3.03;;
74753;SDS011;63271;53.340;-6.260;2023-11-21T15:42:12;15.73;;;3.35;;
74753;SDS011;63271;53.340;-6.260;2023-11-21T15:44:38;15.80;;;2.85;;
74753;SDS011;63271;53.340;-6.260;2023-11-21T15:47:04;9.43;;;2.55;;
74753;SDS011;63271;53.340;-6.260;2023-11-21T15:49:33;9.85;;;3.13;;
74753;SDS011;63271;53.340;-6.260;2023-11-21T15:52:01;16.67;;;3.20;;
74753;SDS011;63271;53.340;-6.260;2023-11-21T15:54:33;16.05;;;3.63;;
74753;SDS011;63271;53.340;-6.260;2023-11-21T15:59:31;13.15;;;3.03;;
74753;SDS011;63271;53.340;-6.260;2023-11-21T16:02:00;12.77;;;2.75;;
74753;SDS011;63271;53.340;-6.260;2023-11-21T16:04:29;14.25;;;3.03;;
74753;SDS011;63271;53.340;-6.260;2023-11-21T16:06:54;16.58;;;3.50;;
74753;SDS011;63271;53.340;-6.260;2023-11-21T16:09:26;12.23;;;2.65;;
74753;SDS011;63271;53.340;-6.260;2023-11-21T16:12:02;14.18;;;2.92;;
74753;SDS011;63271;53.340;-6.260;2023-11-21T16:14:36;8.30;;;2.72;;
74753;SDS011;63271;53.340;-6.260;2023-11-21T16:17:15;16.70;;;2.97;;
74753;SDS011;63271;53.340;-6.260;2023-11-21T16:19:45;8.27;;;2.42;;
74753;SDS011;63271;53.340;-6.260;2023-11-21T16:22:13;8.48;;;2.42;;
74753;SDS011;63271;53.340;-6.260;2023-11-21T16:24:38;11.15;;;2.55;;
74753;SDS011;63271;53.340;-6.260;2023-11-21T16:27:07;11.02;;;2.42;;
74753;SDS011;63271;53.340;-6.260;2023-11-21T16:29:38;10.77;;;3.22;;
74753;SDS011;63271;53.340;-6.260;2023-11-21T16:32:05;11.32;;;3.25;;
74753;SDS011;63271;53.340;-6.260;2023-11-21T16:34:36;12.55;;;3.17;;
74753;SDS011;63271;53.340;-6.260;2023-11-21T16:37:07;10.55;;;2.47;;
74753;SDS011;63271;53.340;-6.260;2023-11-21T16:39:37;9.45;;;2.67;;
74753;SDS011;63271;53.340;-6.260;2023-11-21T16:42:06;10.30;;;2.92;;
74753;SDS011;63271;53.340;-6.260;2023-11-21T16:44:37;10.52;;;3.25;;
74753;SDS011;63271;53.340;-6.260;2023-11-21T16:47:05;7.65;;;2.47;;
74753;SDS011;63271;53.340;-6.260;2023-11-21T16:49:35;13.77;;;2.80;;
74753;SDS011;63271;53.340;-6.260;2023-11-21T16:52:04;16.13;;;3.30;;
74753;SDS011;63271;53.340;-6.260;2023-11-21T16:54:32;11.20;;;3.30;;
74753;SDS011;63271;53.340;-6.260;2023-11-21T16:56:58;16.50;;;3.58;;
74753;SDS011;63271;53.340;-6.260;2023-11-21T16:59:29;23.70;;;3.80;;
74753;SDS011;63271;53.340;-6.260;2023-11-21T17:01:59;14.75;;;2.83;;
74753;SDS011;63271;53.340;-6.260;2023-11-21T17:04:24;12.60;;;3.50;;
74753;SDS011;63271;53.340;-6.260;2023-11-21T17:06:52;24.73;;;3.95;;
74753;SDS011;63271;53.340;-6.260;2023-11-21T17:09:22;8.60;;;2.47;;
74753;SDS011;63271;53.340;-6.260;2023-11-21T17:11:48;21.10;;;3.28;;
74753;SDS011;63271;53.340;-6.260;2023-11-21T17:14:16;16.05;;;3.13;;
74753;SDS011;63271;53.340;-6.260;2023-11-21T17:16:43;16.55;;;4.35;;
74753;SDS011;63271;53.340;-6.260;2023-11-21T17:21:38;16.73;;;3.03;;
74753;SDS011;63271;53.340;-6.260;2023-11-21T17:24:06;14.68;;;3.58;;
74753;SDS011;63271;53.340;-6.260;2023-11-21T17:26:36;12.23;;;2.90;;
74753;SDS011;63271;53.340;-6.260;2023-11-21T17:29:04;10.98;;;3.25;;
74753;SDS011;63271;53.340;-6.260;2023-11-21T17:31:31;14.82;;;3.28;;
74753;SDS011;63271;53.340;-6.260;2023-11-21T17:33:56;12.05;;;3.15;;
74753;SDS011;63271;53.340;-6.260;2023-11-21T17:36:22;14.35;;;3.45;;
74753;SDS011;63271;53.340;-6.260;2023-11-21T17:38:51;10.80;;;3.28;;
74753;SDS011;63271;53.340;-6.260;2023-11-21T17:41:22;12.40;;;2.83;;
74753;SDS011;63271;53.340;-6.260;2023-11-21T17:43:50;14.68;;;3.53;;
74753;SDS011;63271;53.340;-6.260;2023-11-21T17:46:19;8.57;;;3.05;;
74753;SDS011;63271;53.340;-6.260;2023-11-21T17:48:48;17.00;;;3.33;;
74753;SDS011;63271;53.340;-6.260;2023-11-21T17:51:18;10.48;;;2.85;;
74753;SDS011;63271;53.340;-6.260;2023-11-21T17:53:46;9.48;;;2.88;;
74753;SDS011;63271;53.340;-6.260;2023-11-21T17:56:17;14.50;;;3.10;;
74753;SDS011;63271;53.340;-6.260;2023-11-21T17:58:44;11.18;;;3.60;;
74753;SDS011;63271;53.340;-6.260;2023-11-21T18:01:12;15.93;;;3.35;;
74753;SDS011;63271;53.340;-6.260;2023-11-21T18:03:38;15.52;;;3.67;;
74753;SDS011;63271;53.340;-6.260;2023-11-21T18:06:10;14.73;;;3.50;;
74753;SDS011;63271;53.340;-6.260;2023-11-21T18:08:35;14.60;;;3.60;;
74753;SDS011;63271;53.340;-6.260;2023-11-21T18:11:02;11.27;;;3.53;;
74753;SDS011;63271;53.340;-6.260;2023-11-21T18:13:29;13.45;;;3.10;;
74753;SDS011;63271;53.340;-6.260;2023-11-21T18:15:55;12.40;;;3.28;;
74753;SDS011;63271;53.340;-6.260;2023-11-21T18:18:23;10.38;;;3.75;;
74753;SDS011;63271;53.340;-6.260;2023-11-21T18:20:51;11.82;;;3.78;;
74753;SDS011;63271;53.340;-6.260;2023-11-21T18:23:16;17.95;;;3.22;;
74753;SDS011;63271;53.340;-6.260;2023-11-21T18:25:42;17.13;;;3.88;;
74753;SDS011;63271;53.340;-6.260;2023-11-21T18:28:12;16.58;;;3.97;;
74753;SDS011;63271;53.340;-6.260;2023-11-21T18:30:39;9.65;;;3.17;;
74753;SDS011;63271;53.340;-6.260;2023-11-21T18:33:09;17.10;;;3.60;;
74753;SDS011;63271;53.340;-6.260;2023-11-21T18:35:35;12.48;;;3.80;;
74753;SDS011;63271;53.340;-6.260;2023-11-21T18:38:03;14.55;;;3.85;;
74753;SDS011;63271;53.340;-6.260;2023-11-21T18:40:31;16.25;;;3.63;;
74753;SDS011;63271;53.340;-6.260;2023-11-21T18:42:56;16.88;;;4.00;;
74753;SDS011;63271;53.340;-6.260;2023-11-21T18:45:24;13.63;;;3.75;;
74753;SDS011;63271;53.340;-6.260;2023-11-21T18:47:49;11.65;;;3.25;;
74753;SDS011;63271;53.340;-6.260;2023-11-21T18:50:15;14.32;;;4.03;;
74753;SDS011;63271;53.340;-6.260;2023-11-21T18:52:48;9.23;;;3.53;;
74753;SDS011;63271;53.340;-6.260;2023-11-21T18:55:16;11.25;;;3.25;;
74753;SDS011;63271;53.340;-6.260;2023-11-21T18:57:44;9.52;;;3.53;;
74753;SDS011;63271;53.340;-6.260;2023-11-21T19:00:09;13.25;;;3.60;;
74753;SDS011;63271;53.340;-6.260;2023-11-21T19:02:39;15.07;;;3.67;;
74753;SDS011;63271;53.340;-6.260;2023-11-21T19:05:08;11.32;;;3.65;;
74753;SDS011;63271;53.340;-6.260;2023-11-21T19:07:36;14.32;;;3.28;;
74753;SDS011;63271;53.340;-6.260;2023-11-21T19:10:06;15.02;;;4.05;;
74753;SDS011;63271;53.340;-6.260;2023-11-21T19:12:37;18.70;;;3.42;;
74753;SDS011;63271;53.340;-6.260;2023-11-21T19:15:07;13.85;;;3.60;;
74753;SDS011;63271;53.340;-6.260;2023-11-21T19:17:33;12.32;;;3.70;;
74753;SDS011;63271;53.340;-6.260;2023-11-21T19:20:02;10.25;;;3.38;;
74753;SDS011;63271;53.340;-6.260;2023-11-21T19:22:28;9.27;;;3.78;;
74753;SDS011;63271;53.340;-6.260;2023-11-21T19:24:56;13.45;;;3.60;;
74753;SDS011;63271;53.340;-6.260;2023-11-21T19:27:21;14.38;;;4.00;;
74753;SDS011;63271;53.340;-6.260;2023-11-21T19:29:47;9.77;;;2.95;;
74753;SDS011;63271;53.340;-6.260;2023-11-21T19:32:15;13.98;;;4.10;;
74753;SDS011;63271;53.340;-6.260;2023-11-21T19:34:40;12.05;;;3.22;;
74753;SDS011;63271;53.340;-6.260;2023-11-21T19:37:06;11.65;;;3.30;;
74753;SDS011;63271;53.340;-6.260;2023-11-21T19:39:36;8.38;;;3.17;;
74753;SDS011;63271;53.340;-6.260;2023-11-21T19:42:07;8.50;;;2.97;;
74753;SDS011;63271;53.340;-6.260;2023-11-21T19:44:34;11.93;;;2.88;;
74753;SDS011;63271;53.340;-6.260;2023-11-21T19:47:03;10.35;;;3.33;;
74753;SDS011;63271;53.340;-6.260;2023-11-21T19:49:31;12.27;;;3.70;;
74753;SDS011;63271;53.340;-6.260;2023-11-21T19:52:01;7.97;;;2.97;;
74753;SDS011;63271;53.340;-6.260;2023-11-21T19:54:29;10.27;;;3.53;;
74753;SDS011;63271;53.340;-6.260;2023-11-21T19:56:57;11.85;;;3.47;;
74753;SDS011;63271;53.340;-6.260;2023-11-21T19:59:22;10.52;;;3.35;;
